sensor_id;sensor_type;location;lat;lon;timestamp;temperature;humidity
7317;DHT22;3699;51.462;6.696;2022-12-10T00:01:33;0.80;99.90
7317;DHT22;3699;51.462;6.696;2022-12-10T00:04:01;0.80;99.90
7317;DHT22;3699;51.462;6.696;2022-12-10T00:06:31;0.70;99.90
7317;DHT22;3699;51.462;6.696;2022-12-10T00:08:59;0.70;99.90
7317;DHT22;3699;51.462;6.696;2022-12-10T00:11:26;0.60;99.90
7317;DHT22;3699;51.462;6.696;2022-12-10T00:13:54;0.60;99.90
7317;DHT22;3699;51.462;6.696;2022-12-10T00:16:22;0.60;99.90
7317;DHT22;3699;51.462;6.696;2022-12-10T00:18:51;0.60;99.90
7317;DHT22;3699;51.462;6.696;2022-12-10T00:21:19;0.50;99.90
7317;DHT22;3699;51.462;6.696;2022-12-10T00:23:46;0.50;99.90
7317;DHT22;3699;51.462;6.696;2022-12-10T00:26:16;0.50;99.90
7317;DHT22;3699;51.462;6.696;2022-12-10T00:28:43;0.50;99.90
7317;DHT22;3699;51.462;6.696;2022-12-10T00:31:13;0.50;99.90
7317;DHT22;3699;51.462;6.696;2022-12-10T00:33:41;0.40;99.90
7317;DHT22;3699;51.462;6.696;2022-12-10T00:36:11;0.40;99.90
7317;DHT22;3699;51.462;6.696;2022-12-10T00:38:39;0.40;99.90
7317;DHT22;3699;51.462;6.696;2022-12-10T00:41:06;0.40;99.90
7317;DHT22;3699;51.462;6.696;2022-12-10T00:43:33;0.40;99.90
7317;DHT22;3699;51.462;6.696;2022-12-10T00:46:00;0.30;99.90
7317;DHT22;3699;51.462;6.696;2022-12-10T00:48:28;0.30;99.90
7317;DHT22;3699;51.462;6.696;2022-12-10T00:50:56;0.30;99.90
7317;DHT22;3699;51.462;6.696;2022-12-10T00:53:25;0.30;99.90
7317;DHT22;3699;51.462;6.696;2022-12-10T00:55:53;0.30;99.90
7317;DHT22;3699;51.462;6.696;2022-12-10T00:58:20;0.30;99.90
7317;DHT22;3699;51.462;6.696;2022-12-10T01:00:47;0.30;99.90
7317;DHT22;3699;51.462;6.696;2022-12-10T01:03:14;0.20;99.90
7317;DHT22;3699;51.462;6.696;2022-12-10T01:05:41;0.20;99.90
7317;DHT22;3699;51.462;6.696;2022-12-10T01:08:08;0.20;99.90
7317;DHT22;3699;51.462;6.696;2022-12-10T01:10:36;0.20;99.90
7317;DHT22;3699;51.462;6.696;2022-12-10T01:13:03;0.20;99.90
7317;DHT22;3699;51.462;6.696;2022-12-10T01:15:30;0.20;99.90
7317;DHT22;3699;51.462;6.696;2022-12-10T01:17:57;0.20;99.90
7317;DHT22;3699;51.462;6.696;2022-12-10T01:20:24;0.20;99.90
7317;DHT22;3699;51.462;6.696;2022-12-10T01:22:51;0.10;99.90
7317;DHT22;3699;51.462;6.696;2022-12-10T01:25:17;0.10;99.90
7317;DHT22;3699;51.462;6.696;2022-12-10T01:27:45;0.10;99.90
7317;DHT22;3699;51.462;6.696;2022-12-10T01:30:20;0.10;99.90
7317;DHT22;3699;51.462;6.696;2022-12-10T01:32:46;0.10;99.90
7317;DHT22;3699;51.462;6.696;2022-12-10T01:35:13;0.10;99.90
7317;DHT22;3699;51.462;6.696;2022-12-10T01:37:40;0.10;99.90
7317;DHT22;3699;51.462;6.696;2022-12-10T01:40:08;0.10;99.90
7317;DHT22;3699;51.462;6.696;2022-12-10T01:42:35;0.10;99.90
7317;DHT22;3699;51.462;6.696;2022-12-10T01:45:10;0.10;99.90
7317;DHT22;3699;51.462;6.696;2022-12-10T01:47:37;0.10;99.90
7317;DHT22;3699;51.462;6.696;2022-12-10T01:50:06;0.00;99.90
7317;DHT22;3699;51.462;6.696;2022-12-10T01:52:33;0.00;99.90
7317;DHT22;3699;51.462;6.696;2022-12-10T01:55:00;0.00;99.90
7317;DHT22;3699;51.462;6.696;2022-12-10T01:57:27;-0.40;99.90
7317;DHT22;3699;51.462;6.696;2022-12-10T01:59:57;0.00;99.90
7317;DHT22;3699;51.462;6.696;2022-12-10T02:02:34;0.00;99.90
7317;DHT22;3699;51.462;6.696;2022-12-10T02:05:15;0.00;99.90
7317;DHT22;3699;51.462;6.696;2022-12-10T02:07:57;0.00;99.90
7317;DHT22;3699;51.462;6.696;2022-12-10T02:10:34;0.00;99.90
7317;DHT22;3699;51.462;6.696;2022-12-10T02:13:08;0.00;99.90
7317;DHT22;3699;51.462;6.696;2022-12-10T02:15:40;0.00;99.90
7317;DHT22;3699;51.462;6.696;2022-12-10T02:18:11;0.00;99.90
7317;DHT22;3699;51.462;6.696;2022-12-10T02:20:41;0.00;99.90
7317;DHT22;3699;51.462;6.696;2022-12-10T02:23:10;0.00;99.90
7317;DHT22;3699;51.462;6.696;2022-12-10T02:25:41;0.10;99.90
7317;DHT22;3699;51.462;6.696;2022-12-10T02:28:14;0.00;99.90
7317;DHT22;3699;51.462;6.696;2022-12-10T02:30:47;0.10;99.90
7317;DHT22;3699;51.462;6.696;2022-12-10T02:33:17;0.10;99.90
7317;DHT22;3699;51.462;6.696;2022-12-10T02:35:46;0.10;99.90
7317;DHT22;3699;51.462;6.696;2022-12-10T02:38:19;0.10;99.90
7317;DHT22;3699;51.462;6.696;2022-12-10T02:40:50;0.10;99.90
7317;DHT22;3699;51.462;6.696;2022-12-10T02:43:20;0.10;99.90
7317;DHT22;3699;51.462;6.696;2022-12-10T02:45:49;0.10;99.90
7317;DHT22;3699;51.462;6.696;2022-12-10T02:48:17;0.10;99.90
7317;DHT22;3699;51.462;6.696;2022-12-10T02:50:44;0.10;99.90
7317;DHT22;3699;51.462;6.696;2022-12-10T02:53:11;0.10;99.90
7317;DHT22;3699;51.462;6.696;2022-12-10T02:55:47;0.20;99.90
7317;DHT22;3699;51.462;6.696;2022-12-10T02:58:24;0.20;99.90
7317;DHT22;3699;51.462;6.696;2022-12-10T03:00:58;0.20;99.90
7317;DHT22;3699;51.462;6.696;2022-12-10T03:03:37;0.30;99.90
7317;DHT22;3699;51.462;6.696;2022-12-10T03:06:09;0.30;99.90
7317;DHT22;3699;51.462;6.696;2022-12-10T03:08:42;0.40;99.90
7317;DHT22;3699;51.462;6.696;2022-12-10T03:11:12;0.40;99.90
7317;DHT22;3699;51.462;6.696;2022-12-10T03:13:45;0.40;99.90
7317;DHT22;3699;51.462;6.696;2022-12-10T03:16:16;0.50;99.90
7317;DHT22;3699;51.462;6.696;2022-12-10T03:18:49;0.50;99.90
7317;DHT22;3699;51.462;6.696;2022-12-10T03:21:18;0.50;99.90
7317;DHT22;3699;51.462;6.696;2022-12-10T03:23:47;0.60;99.90
7317;DHT22;3699;51.462;6.696;2022-12-10T03:26:14;0.60;99.90
7317;DHT22;3699;51.462;6.696;2022-12-10T03:28:45;0.60;99.90
7317;DHT22;3699;51.462;6.696;2022-12-10T03:31:14;0.60;99.90
7317;DHT22;3699;51.462;6.696;2022-12-10T03:33:42;0.70;99.90
7317;DHT22;3699;51.462;6.696;2022-12-10T03:36:10;0.70;99.90
7317;DHT22;3699;51.462;6.696;2022-12-10T03:38:37;0.70;99.90
7317;DHT22;3699;51.462;6.696;2022-12-10T03:41:04;0.70;99.90
7317;DHT22;3699;51.462;6.696;2022-12-10T03:43:31;0.70;99.90
7317;DHT22;3699;51.462;6.696;2022-12-10T03:45:58;0.70;99.90
7317;DHT22;3699;51.462;6.696;2022-12-10T03:48:26;0.70;99.90
7317;DHT22;3699;51.462;6.696;2022-12-10T03:50:53;0.70;99.90
7317;DHT22;3699;51.462;6.696;2022-12-10T03:53:20;0.70;99.90
7317;DHT22;3699;51.462;6.696;2022-12-10T03:55:46;0.70;99.90
7317;DHT22;3699;51.462;6.696;2022-12-10T03:58:13;0.60;99.90
7317;DHT22;3699;51.462;6.696;2022-12-10T04:00:40;0.60;99.90
7317;DHT22;3699;51.462;6.696;2022-12-10T04:03:06;0.60;99.90
7317;DHT22;3699;51.462;6.696;2022-12-10T04:05:36;0.60;99.90
7317;DHT22;3699;51.462;6.696;2022-12-10T04:08:03;0.60;99.90
7317;DHT22;3699;51.462;6.696;2022-12-10T04:10:34;0.50;99.90
7317;DHT22;3699;51.462;6.696;2022-12-10T04:13:00;0.50;99.90
7317;DHT22;3699;51.462;6.696;2022-12-10T04:15:45;0.50;99.90
7317;DHT22;3699;51.462;6.696;2022-12-10T04:18:29;0.50;99.90
7317;DHT22;3699;51.462;6.696;2022-12-10T04:20:57;0.50;99.90
7317;DHT22;3699;51.462;6.696;2022-12-10T04:23:41;0.50;99.90
7317;DHT22;3699;51.462;6.696;2022-12-10T04:26:25;0.50;99.90
7317;DHT22;3699;51.462;6.696;2022-12-10T04:29:10;0.50;99.90
7317;DHT22;3699;51.462;6.696;2022-12-10T04:31:36;0.50;99.90
7317;DHT22;3699;51.462;6.696;2022-12-10T04:34:03;0.50;99.90
7317;DHT22;3699;51.462;6.696;2022-12-10T04:36:31;0.50;99.90
7317;DHT22;3699;51.462;6.696;2022-12-10T04:38:58;0.60;99.90
7317;DHT22;3699;51.462;6.696;2022-12-10T04:41:25;0.60;99.90
7317;DHT22;3699;51.462;6.696;2022-12-10T04:43:52;0.60;99.90
7317;DHT22;3699;51.462;6.696;2022-12-10T04:46:20;0.60;99.90
7317;DHT22;3699;51.462;6.696;2022-12-10T04:48:47;0.60;99.90
7317;DHT22;3699;51.462;6.696;2022-12-10T04:51:13;0.60;99.90
7317;DHT22;3699;51.462;6.696;2022-12-10T04:53:41;0.60;99.90
7317;DHT22;3699;51.462;6.696;2022-12-10T04:56:08;0.60;99.90
7317;DHT22;3699;51.462;6.696;2022-12-10T04:58:35;0.60;99.90
7317;DHT22;3699;51.462;6.696;2022-12-10T05:01:03;0.60;99.90
7317;DHT22;3699;51.462;6.696;2022-12-10T05:03:30;0.50;99.90
7317;DHT22;3699;51.462;6.696;2022-12-10T05:06:00;0.50;99.90
7317;DHT22;3699;51.462;6.696;2022-12-10T05:08:28;0.50;99.90
7317;DHT22;3699;51.462;6.696;2022-12-10T05:10:59;0.40;99.90
7317;DHT22;3699;51.462;6.696;2022-12-10T05:13:26;0.40;99.90
7317;DHT22;3699;51.462;6.696;2022-12-10T05:15:53;0.40;99.90
7317;DHT22;3699;51.462;6.696;2022-12-10T05:18:19;0.30;99.90
7317;DHT22;3699;51.462;6.696;2022-12-10T05:20:46;0.30;99.90
7317;DHT22;3699;51.462;6.696;2022-12-10T05:23:13;0.30;99.90
7317;DHT22;3699;51.462;6.696;2022-12-10T05:26:02;0.20;99.90
7317;DHT22;3699;51.462;6.696;2022-12-10T05:28:30;0.20;99.90
7317;DHT22;3699;51.462;6.696;2022-12-10T05:30:58;0.20;99.90
7317;DHT22;3699;51.462;6.696;2022-12-10T05:33:25;0.10;99.90
7317;DHT22;3699;51.462;6.696;2022-12-10T05:35:53;0.20;99.90
7317;DHT22;3699;51.462;6.696;2022-12-10T05:38:20;0.10;99.90
7317;DHT22;3699;51.462;6.696;2022-12-10T05:40:47;0.10;99.90
7317;DHT22;3699;51.462;6.696;2022-12-10T05:43:15;0.10;99.90
7317;DHT22;3699;51.462;6.696;2022-12-10T05:45:42;0.10;99.90
7317;DHT22;3699;51.462;6.696;2022-12-10T05:48:09;0.10;99.90
7317;DHT22;3699;51.462;6.696;2022-12-10T05:50:36;0.10;99.90
7317;DHT22;3699;51.462;6.696;2022-12-10T05:53:03;0.10;99.90
7317;DHT22;3699;51.462;6.696;2022-12-10T05:55:30;0.10;99.90
7317;DHT22;3699;51.462;6.696;2022-12-10T05:57:58;0.00;99.90
7317;DHT22;3699;51.462;6.696;2022-12-10T06:00:27;0.00;99.90
7317;DHT22;3699;51.462;6.696;2022-12-10T06:02:54;0.00;99.90
7317;DHT22;3699;51.462;6.696;2022-12-10T06:05:21;-0.10;99.90
7317;DHT22;3699;51.462;6.696;2022-12-10T06:07:48;-0.10;99.90
7317;DHT22;3699;51.462;6.696;2022-12-10T06:10:14;-0.10;99.90
7317;DHT22;3699;51.462;6.696;2022-12-10T06:12:41;-0.10;99.90
7317;DHT22;3699;51.462;6.696;2022-12-10T06:15:09;0.00;99.90
7317;DHT22;3699;51.462;6.696;2022-12-10T06:17:37;0.00;99.90
7317;DHT22;3699;51.462;6.696;2022-12-10T06:20:05;0.00;99.90
7317;DHT22;3699;51.462;6.696;2022-12-10T06:22:33;0.10;99.90
7317;DHT22;3699;51.462;6.696;2022-12-10T06:24:59;0.10;99.90
7317;DHT22;3699;51.462;6.696;2022-12-10T06:27:28;0.10;99.90
7317;DHT22;3699;51.462;6.696;2022-12-10T06:29:55;0.20;99.90
7317;DHT22;3699;51.462;6.696;2022-12-10T06:32:22;0.20;99.90
7317;DHT22;3699;51.462;6.696;2022-12-10T06:34:50;0.20;99.90
7317;DHT22;3699;51.462;6.696;2022-12-10T06:37:17;0.20;99.90
7317;DHT22;3699;51.462;6.696;2022-12-10T06:39:43;0.30;99.90
7317;DHT22;3699;51.462;6.696;2022-12-10T06:42:10;0.30;99.90
7317;DHT22;3699;51.462;6.696;2022-12-10T06:44:37;0.30;99.90
7317;DHT22;3699;51.462;6.696;2022-12-10T06:47:04;0.40;99.90
7317;DHT22;3699;51.462;6.696;2022-12-10T06:49:31;0.40;99.90
7317;DHT22;3699;51.462;6.696;2022-12-10T06:51:59;0.40;99.90
7317;DHT22;3699;51.462;6.696;2022-12-10T06:54:25;0.40;99.90
7317;DHT22;3699;51.462;6.696;2022-12-10T06:56:52;0.40;99.90
7317;DHT22;3699;51.462;6.696;2022-12-10T06:59:19;0.40;99.90
7317;DHT22;3699;51.462;6.696;2022-12-10T07:01:47;0.40;99.90
7317;DHT22;3699;51.462;6.696;2022-12-10T07:04:13;0.40;99.90
7317;DHT22;3699;51.462;6.696;2022-12-10T07:06:40;0.50;99.90
7317;DHT22;3699;51.462;6.696;2022-12-10T07:09:08;0.50;99.90
7317;DHT22;3699;51.462;6.696;2022-12-10T07:11:36;0.50;99.90
7317;DHT22;3699;51.462;6.696;2022-12-10T07:14:03;0.50;99.90
7317;DHT22;3699;51.462;6.696;2022-12-10T07:16:31;0.50;99.90
7317;DHT22;3699;51.462;6.696;2022-12-10T07:19:00;0.60;99.90
7317;DHT22;3699;51.462;6.696;2022-12-10T07:21:28;0.60;99.90
7317;DHT22;3699;51.462;6.696;2022-12-10T07:23:57;0.60;99.90
7317;DHT22;3699;51.462;6.696;2022-12-10T07:26:28;0.60;99.90
7317;DHT22;3699;51.462;6.696;2022-12-10T07:28:55;0.60;99.90
7317;DHT22;3699;51.462;6.696;2022-12-10T07:31:22;0.60;99.90
7317;DHT22;3699;51.462;6.696;2022-12-10T07:33:49;0.60;99.90
7317;DHT22;3699;51.462;6.696;2022-12-10T07:36:16;0.60;99.90
7317;DHT22;3699;51.462;6.696;2022-12-10T07:38:42;0.60;99.90
7317;DHT22;3699;51.462;6.696;2022-12-10T07:41:11;0.60;99.90
7317;DHT22;3699;51.462;6.696;2022-12-10T07:43:41;0.60;99.90
7317;DHT22;3699;51.462;6.696;2022-12-10T07:46:09;0.70;99.90
7317;DHT22;3699;51.462;6.696;2022-12-10T07:48:38;0.70;99.90
7317;DHT22;3699;51.462;6.696;2022-12-10T07:51:05;0.70;99.90
7317;DHT22;3699;51.462;6.696;2022-12-10T07:53:32;0.60;99.90
7317;DHT22;3699;51.462;6.696;2022-12-10T07:55:59;0.70;99.90
7317;DHT22;3699;51.462;6.696;2022-12-10T07:58:26;0.70;99.90
7317;DHT22;3699;51.462;6.696;2022-12-10T08:00:54;0.70;99.90
7317;DHT22;3699;51.462;6.696;2022-12-10T08:03:21;0.70;99.90
7317;DHT22;3699;51.462;6.696;2022-12-10T08:05:49;0.70;99.90
7317;DHT22;3699;51.462;6.696;2022-12-10T08:08:26;0.70;99.90
7317;DHT22;3699;51.462;6.696;2022-12-10T08:10:53;0.70;99.90
7317;DHT22;3699;51.462;6.696;2022-12-10T08:13:19;0.70;99.90
7317;DHT22;3699;51.462;6.696;2022-12-10T08:15:46;0.70;99.90
7317;DHT22;3699;51.462;6.696;2022-12-10T08:18:14;0.70;99.90
7317;DHT22;3699;51.462;6.696;2022-12-10T08:20:41;0.80;99.90
7317;DHT22;3699;51.462;6.696;2022-12-10T08:23:07;0.80;99.90
7317;DHT22;3699;51.462;6.696;2022-12-10T08:25:35;0.80;99.90
7317;DHT22;3699;51.462;6.696;2022-12-10T08:28:02;0.80;99.90
7317;DHT22;3699;51.462;6.696;2022-12-10T08:30:29;0.80;99.90
7317;DHT22;3699;51.462;6.696;2022-12-10T08:32:58;0.80;99.90
7317;DHT22;3699;51.462;6.696;2022-12-10T08:35:26;0.80;99.90
7317;DHT22;3699;51.462;6.696;2022-12-10T08:37:53;3.00;99.90
7317;DHT22;3699;51.462;6.696;2022-12-10T08:40:20;0.80;99.90
7317;DHT22;3699;51.462;6.696;2022-12-10T08:42:46;0.80;99.90
7317;DHT22;3699;51.462;6.696;2022-12-10T08:45:13;1.40;99.90
7317;DHT22;3699;51.462;6.696;2022-12-10T08:47:40;0.90;99.90
7317;DHT22;3699;51.462;6.696;2022-12-10T08:50:08;0.80;99.90
7317;DHT22;3699;51.462;6.696;2022-12-10T08:52:36;0.80;99.90
7317;DHT22;3699;51.462;6.696;2022-12-10T08:55:03;0.80;99.90
7317;DHT22;3699;51.462;6.696;2022-12-10T08:57:30;0.80;99.90
7317;DHT22;3699;51.462;6.696;2022-12-10T08:59:56;0.90;99.90
7317;DHT22;3699;51.462;6.696;2022-12-10T09:02:23;0.90;99.90
7317;DHT22;3699;51.462;6.696;2022-12-10T09:04:50;1.00;99.90
7317;DHT22;3699;51.462;6.696;2022-12-10T09:07:18;1.00;99.90
7317;DHT22;3699;51.462;6.696;2022-12-10T09:09:46;1.10;99.90
7317;DHT22;3699;51.462;6.696;2022-12-10T09:12:12;1.10;99.90
7317;DHT22;3699;51.462;6.696;2022-12-10T09:14:39;1.10;99.90
7317;DHT22;3699;51.462;6.696;2022-12-10T09:17:07;1.20;99.90
7317;DHT22;3699;51.462;6.696;2022-12-10T09:19:34;1.20;99.90
7317;DHT22;3699;51.462;6.696;2022-12-10T09:22:01;1.20;99.90
7317;DHT22;3699;51.462;6.696;2022-12-10T09:24:28;1.20;99.90
7317;DHT22;3699;51.462;6.696;2022-12-10T09:26:56;1.20;99.90
7317;DHT22;3699;51.462;6.696;2022-12-10T09:29:23;1.30;99.90
7317;DHT22;3699;51.462;6.696;2022-12-10T09:31:50;1.30;99.90
7317;DHT22;3699;51.462;6.696;2022-12-10T09:34:17;1.30;99.90
7317;DHT22;3699;51.462;6.696;2022-12-10T09:36:44;1.30;99.90
7317;DHT22;3699;51.462;6.696;2022-12-10T09:39:11;1.30;99.90
7317;DHT22;3699;51.462;6.696;2022-12-10T09:41:56;1.30;99.90
7317;DHT22;3699;51.462;6.696;2022-12-10T09:44:35;1.30;99.90
7317;DHT22;3699;51.462;6.696;2022-12-10T09:47:08;1.30;99.90
7317;DHT22;3699;51.462;6.696;2022-12-10T09:49:43;1.30;99.90
7317;DHT22;3699;51.462;6.696;2022-12-10T09:52:14;1.30;99.90
7317;DHT22;3699;51.462;6.696;2022-12-10T09:54:44;1.30;99.90
7317;DHT22;3699;51.462;6.696;2022-12-10T09:57:20;1.30;99.90
7317;DHT22;3699;51.462;6.696;2022-12-10T09:59:49;1.30;99.90
7317;DHT22;3699;51.462;6.696;2022-12-10T10:02:21;1.30;99.90
7317;DHT22;3699;51.462;6.696;2022-12-10T10:04:50;1.30;99.90
7317;DHT22;3699;51.462;6.696;2022-12-10T10:07:20;1.30;99.90
7317;DHT22;3699;51.462;6.696;2022-12-10T10:09:48;1.30;99.90
7317;DHT22;3699;51.462;6.696;2022-12-10T10:12:16;1.50;99.90
7317;DHT22;3699;51.462;6.696;2022-12-10T10:14:44;1.40;99.90
7317;DHT22;3699;51.462;6.696;2022-12-10T10:17:16;1.30;99.90
7317;DHT22;3699;51.462;6.696;2022-12-10T10:19:45;1.40;99.90
7317;DHT22;3699;51.462;6.696;2022-12-10T10:22:11;1.40;99.90
7317;DHT22;3699;51.462;6.696;2022-12-10T10:24:41;1.50;99.90
7317;DHT22;3699;51.462;6.696;2022-12-10T10:27:13;1.50;99.90
7317;DHT22;3699;51.462;6.696;2022-12-10T10:29:43;1.50;99.90
7317;DHT22;3699;51.462;6.696;2022-12-10T10:32:13;1.60;99.90
7317;DHT22;3699;51.462;6.696;2022-12-10T10:34:40;1.60;99.90
7317;DHT22;3699;51.462;6.696;2022-12-10T10:37:11;1.60;99.90
7317;DHT22;3699;51.462;6.696;2022-12-10T10:39:47;1.60;99.90
7317;DHT22;3699;51.462;6.696;2022-12-10T10:42:21;1.70;99.90
7317;DHT22;3699;51.462;6.696;2022-12-10T10:44:50;1.70;99.90
7317;DHT22;3699;51.462;6.696;2022-12-10T10:47:25;1.80;99.90
7317;DHT22;3699;51.462;6.696;2022-12-10T10:49:52;1.80;99.90
7317;DHT22;3699;51.462;6.696;2022-12-10T10:52:19;1.90;99.90
7317;DHT22;3699;51.462;6.696;2022-12-10T10:54:47;2.00;99.90
7317;DHT22;3699;51.462;6.696;2022-12-10T10:57:23;2.00;99.90
7317;DHT22;3699;51.462;6.696;2022-12-10T10:59:54;2.10;99.90
7317;DHT22;3699;51.462;6.696;2022-12-10T11:02:26;2.20;99.90
7317;DHT22;3699;51.462;6.696;2022-12-10T11:04:56;2.30;99.90
7317;DHT22;3699;51.462;6.696;2022-12-10T11:07:26;2.40;99.90
7317;DHT22;3699;51.462;6.696;2022-12-10T11:10:00;2.40;99.90
7317;DHT22;3699;51.462;6.696;2022-12-10T11:12:35;2.50;99.90
7317;DHT22;3699;51.462;6.696;2022-12-10T11:15:28;2.50;99.90
7317;DHT22;3699;51.462;6.696;2022-12-10T11:17:56;2.60;99.90
7317;DHT22;3699;51.462;6.696;2022-12-10T11:20:24;2.60;99.90
7317;DHT22;3699;51.462;6.696;2022-12-10T11:22:54;2.60;99.90
7317;DHT22;3699;51.462;6.696;2022-12-10T11:25:32;2.60;99.90
7317;DHT22;3699;51.462;6.696;2022-12-10T11:28:07;2.70;99.90
7317;DHT22;3699;51.462;6.696;2022-12-10T11:30:45;2.70;99.90
7317;DHT22;3699;51.462;6.696;2022-12-10T11:33:20;2.70;99.90
7317;DHT22;3699;51.462;6.696;2022-12-10T11:35:55;2.80;99.90
7317;DHT22;3699;51.462;6.696;2022-12-10T11:38:28;2.80;99.90
7317;DHT22;3699;51.462;6.696;2022-12-10T11:41:01;2.80;99.90
7317;DHT22;3699;51.462;6.696;2022-12-10T11:43:44;2.80;99.90
7317;DHT22;3699;51.462;6.696;2022-12-10T11:46:26;2.70;99.90
7317;DHT22;3699;51.462;6.696;2022-12-10T11:49:06;2.70;99.90
7317;DHT22;3699;51.462;6.696;2022-12-10T11:51:41;2.70;99.90
7317;DHT22;3699;51.462;6.696;2022-12-10T11:54:36;2.80;99.90
7317;DHT22;3699;51.462;6.696;2022-12-10T11:57:12;2.70;99.90
7317;DHT22;3699;51.462;6.696;2022-12-10T11:59:46;2.70;99.90
7317;DHT22;3699;51.462;6.696;2022-12-10T12:02:36;2.70;99.90
7317;DHT22;3699;51.462;6.696;2022-12-10T12:05:17;2.60;99.90
7317;DHT22;3699;51.462;6.696;2022-12-10T12:07:53;2.60;99.90
7317;DHT22;3699;51.462;6.696;2022-12-10T12:10:38;2.60;99.90
7317;DHT22;3699;51.462;6.696;2022-12-10T12:13:11;2.60;99.90
7317;DHT22;3699;51.462;6.696;2022-12-10T12:15:42;2.50;99.90
7317;DHT22;3699;51.462;6.696;2022-12-10T12:18:17;2.60;99.90
7317;DHT22;3699;51.462;6.696;2022-12-10T12:20:49;2.60;99.90
7317;DHT22;3699;51.462;6.696;2022-12-10T12:23:22;2.60;99.90
7317;DHT22;3699;51.462;6.696;2022-12-10T12:25:52;2.60;99.90
7317;DHT22;3699;51.462;6.696;2022-12-10T12:28:23;2.60;99.90
7317;DHT22;3699;51.462;6.696;2022-12-10T12:30:58;2.60;99.90
7317;DHT22;3699;51.462;6.696;2022-12-10T12:33:29;2.60;99.90
7317;DHT22;3699;51.462;6.696;2022-12-10T12:36:02;2.60;99.90
7317;DHT22;3699;51.462;6.696;2022-12-10T12:38:32;2.60;99.90
7317;DHT22;3699;51.462;6.696;2022-12-10T12:41:04;2.60;99.90
7317;DHT22;3699;51.462;6.696;2022-12-10T12:43:44;2.70;99.90
7317;DHT22;3699;51.462;6.696;2022-12-10T12:46:16;2.70;99.90
7317;DHT22;3699;51.462;6.696;2022-12-10T12:48:52;2.70;99.90
7317;DHT22;3699;51.462;6.696;2022-12-10T12:51:24;2.70;99.90
7317;DHT22;3699;51.462;6.696;2022-12-10T12:53:53;2.70;99.90
7317;DHT22;3699;51.462;6.696;2022-12-10T12:56:26;2.70;99.90
7317;DHT22;3699;51.462;6.696;2022-12-10T12:59:02;2.70;99.90
7317;DHT22;3699;51.462;6.696;2022-12-10T13:01:33;2.60;99.90
7317;DHT22;3699;51.462;6.696;2022-12-10T13:04:04;2.70;99.90
7317;DHT22;3699;51.462;6.696;2022-12-10T13:06:34;2.70;99.90
7317;DHT22;3699;51.462;6.696;2022-12-10T13:09:17;2.70;99.90
7317;DHT22;3699;51.462;6.696;2022-12-10T13:11:45;2.70;99.90
7317;DHT22;3699;51.462;6.696;2022-12-10T13:14:16;2.70;99.90
7317;DHT22;3699;51.462;6.696;2022-12-10T13:17:26;2.60;99.90
7317;DHT22;3699;51.462;6.696;2022-12-10T13:20:34;2.60;99.90
7317;DHT22;3699;51.462;6.696;2022-12-10T13:23:03;2.70;99.90
7317;DHT22;3699;51.462;6.696;2022-12-10T13:25:41;2.60;99.90
7317;DHT22;3699;51.462;6.696;2022-12-10T13:28:27;2.70;99.90
7317;DHT22;3699;51.462;6.696;2022-12-10T13:31:17;2.70;99.90
7317;DHT22;3699;51.462;6.696;2022-12-10T13:33:51;2.70;99.90
7317;DHT22;3699;51.462;6.696;2022-12-10T13:36:28;2.70;99.90
7317;DHT22;3699;51.462;6.696;2022-12-10T13:39:13;2.70;99.90
7317;DHT22;3699;51.462;6.696;2022-12-10T13:45:22;2.60;99.90
7317;DHT22;3699;51.462;6.696;2022-12-10T13:47:51;2.60;99.90
7317;DHT22;3699;51.462;6.696;2022-12-10T13:50:23;2.50;99.90
7317;DHT22;3699;51.462;6.696;2022-12-10T13:53:00;2.50;99.90
7317;DHT22;3699;51.462;6.696;2022-12-10T13:55:33;2.50;99.90
7317;DHT22;3699;51.462;6.696;2022-12-10T13:58:14;2.50;99.90
7317;DHT22;3699;51.462;6.696;2022-12-10T14:00:50;2.50;99.90
7317;DHT22;3699;51.462;6.696;2022-12-10T14:03:50;2.50;99.90
7317;DHT22;3699;51.462;6.696;2022-12-10T14:06:24;2.50;99.90
7317;DHT22;3699;51.462;6.696;2022-12-10T14:08:57;2.60;99.90
7317;DHT22;3699;51.462;6.696;2022-12-10T14:11:28;2.60;99.90
7317;DHT22;3699;51.462;6.696;2022-12-10T14:13:58;2.40;99.90
7317;DHT22;3699;51.462;6.696;2022-12-10T14:16:28;2.60;99.90
7317;DHT22;3699;51.462;6.696;2022-12-10T14:18:59;2.60;99.90
7317;DHT22;3699;51.462;6.696;2022-12-10T14:21:31;2.60;99.90
7317;DHT22;3699;51.462;6.696;2022-12-10T14:24:00;2.60;99.90
7317;DHT22;3699;51.462;6.696;2022-12-10T14:26:29;2.70;99.90
7317;DHT22;3699;51.462;6.696;2022-12-10T14:28:58;2.60;99.90
7317;DHT22;3699;51.462;6.696;2022-12-10T14:31:28;2.70;99.90
7317;DHT22;3699;51.462;6.696;2022-12-10T14:34:00;2.60;99.90
7317;DHT22;3699;51.462;6.696;2022-12-10T14:36:30;2.60;99.90
7317;DHT22;3699;51.462;6.696;2022-12-10T14:38:59;2.60;99.90
7317;DHT22;3699;51.462;6.696;2022-12-10T14:41:29;2.60;99.90
7317;DHT22;3699;51.462;6.696;2022-12-10T14:43:58;2.40;99.90
7317;DHT22;3699;51.462;6.696;2022-12-10T14:46:30;2.50;99.90
7317;DHT22;3699;51.462;6.696;2022-12-10T14:48:57;2.40;99.90
7317;DHT22;3699;51.462;6.696;2022-12-10T14:51:26;2.50;99.90
7317;DHT22;3699;51.462;6.696;2022-12-10T14:53:54;2.40;99.90
7317;DHT22;3699;51.462;6.696;2022-12-10T14:56:25;2.40;99.90
7317;DHT22;3699;51.462;6.696;2022-12-10T14:58:59;2.50;99.90
7317;DHT22;3699;51.462;6.696;2022-12-10T15:01:29;2.50;99.90
7317;DHT22;3699;51.462;6.696;2022-12-10T15:03:59;2.40;99.90
7317;DHT22;3699;51.462;6.696;2022-12-10T15:06:26;2.40;99.90
7317;DHT22;3699;51.462;6.696;2022-12-10T15:08:55;2.40;99.90
7317;DHT22;3699;51.462;6.696;2022-12-10T15:11:26;2.40;99.90
7317;DHT22;3699;51.462;6.696;2022-12-10T15:13:56;2.40;99.90
7317;DHT22;3699;51.462;6.696;2022-12-10T15:16:29;2.30;99.90
7317;DHT22;3699;51.462;6.696;2022-12-10T15:19:07;2.30;99.90
7317;DHT22;3699;51.462;6.696;2022-12-10T15:21:41;2.30;99.90
7317;DHT22;3699;51.462;6.696;2022-12-10T15:24:14;2.30;99.90
7317;DHT22;3699;51.462;6.696;2022-12-10T15:26:44;2.20;99.90
7317;DHT22;3699;51.462;6.696;2022-12-10T15:29:32;2.20;99.90
7317;DHT22;3699;51.462;6.696;2022-12-10T15:32:04;2.20;99.90
7317;DHT22;3699;51.462;6.696;2022-12-10T15:34:37;2.20;99.90
7317;DHT22;3699;51.462;6.696;2022-12-10T15:37:05;2.20;99.90
7317;DHT22;3699;51.462;6.696;2022-12-10T15:39:35;2.20;99.90
7317;DHT22;3699;51.462;6.696;2022-12-10T15:42:06;2.20;99.90
7317;DHT22;3699;51.462;6.696;2022-12-10T15:44:37;2.20;99.90
7317;DHT22;3699;51.462;6.696;2022-12-10T15:47:17;2.20;99.90
7317;DHT22;3699;51.462;6.696;2022-12-10T15:49:53;2.20;99.90
7317;DHT22;3699;51.462;6.696;2022-12-10T15:52:22;2.20;99.90
7317;DHT22;3699;51.462;6.696;2022-12-10T15:54:50;2.20;99.90
7317;DHT22;3699;51.462;6.696;2022-12-10T15:57:20;2.20;99.90
7317;DHT22;3699;51.462;6.696;2022-12-10T15:59:49;2.20;99.90
7317;DHT22;3699;51.462;6.696;2022-12-10T16:02:25;2.20;99.90
7317;DHT22;3699;51.462;6.696;2022-12-10T16:04:53;2.10;99.90
7317;DHT22;3699;51.462;6.696;2022-12-10T16:07:20;2.20;99.90
7317;DHT22;3699;51.462;6.696;2022-12-10T16:09:47;2.20;99.90
7317;DHT22;3699;51.462;6.696;2022-12-10T16:12:14;2.20;99.90
7317;DHT22;3699;51.462;6.696;2022-12-10T16:14:46;2.20;99.90
7317;DHT22;3699;51.462;6.696;2022-12-10T16:17:14;2.20;99.90
7317;DHT22;3699;51.462;6.696;2022-12-10T16:19:41;2.20;99.90
7317;DHT22;3699;51.462;6.696;2022-12-10T16:22:08;2.20;99.90
7317;DHT22;3699;51.462;6.696;2022-12-10T16:24:35;2.10;99.90
7317;DHT22;3699;51.462;6.696;2022-12-10T16:27:08;2.10;99.90
7317;DHT22;3699;51.462;6.696;2022-12-10T16:29:36;2.10;99.90
7317;DHT22;3699;51.462;6.696;2022-12-10T16:32:04;2.20;99.90
7317;DHT22;3699;51.462;6.696;2022-12-10T16:34:31;2.20;99.90
7317;DHT22;3699;51.462;6.696;2022-12-10T16:36:57;2.10;99.90
7317;DHT22;3699;51.462;6.696;2022-12-10T16:39:24;2.20;99.90
7317;DHT22;3699;51.462;6.696;2022-12-10T16:41:51;2.20;99.90